sensor_id;sensor_type;location;lat;lon;timestamp;P1;durP1;ratioP1;P2;durP2;ratioP2
66425;SDS011;53237;46.158;14.604;2022-08-21T00:01:50;4.32;;;1.98;;
66425;SDS011;53237;46.158;14.604;2022-08-21T00:04:16;5.72;;;2.20;;
66425;SDS011;53237;46.158;14.604;2022-08-21T00:06:42;2.00;;;1.80;;
66425;SDS011;53237;46.158;14.604;2022-08-21T00:09:08;2.58;;;1.83;;
66425;SDS011;53237;46.158;14.604;2022-08-21T00:11:35;2.25;;;1.60;;
66425;SDS011;53237;46.158;14.604;2022-08-21T00:14:03;2.55;;;1.90;;
66425;SDS011;53237;46.158;14.604;2022-08-21T00:16:29;2.88;;;2.00;;
66425;SDS011;53237;46.158;14.604;2022-08-21T00:18:55;2.03;;;1.58;;
66425;SDS011;53237;46.158;14.604;2022-08-21T00:21:21;1.77;;;1.67;;
66425;SDS011;53237;46.158;14.604;2022-08-21T00:23:47;4.18;;;1.98;;
66425;SDS011;53237;46.158;14.604;2022-08-21T00:26:13;3.13;;;1.90;;
66425;SDS011;53237;46.158;14.604;2022-08-21T00:28:39;2.58;;;1.80;;
66425;SDS011;53237;46.158;14.604;2022-08-21T00:31:05;1.60;;;1.50;;
66425;SDS011;53237;46.158;14.604;2022-08-21T00:33:31;3.05;;;1.88;;
66425;SDS011;53237;46.158;14.604;2022-08-21T00:35:57;1.77;;;1.67;;
66425;SDS011;53237;46.158;14.604;2022-08-21T00:38:24;2.20;;;1.73;;
66425;SDS011;53237;46.158;14.604;2022-08-21T00:40:52;2.08;;;1.80;;
66425;SDS011;53237;46.158;14.604;2022-08-21T00:43:20;2.20;;;1.75;;
66425;SDS011;53237;46.158;14.604;2022-08-21T00:45:46;2.25;;;1.70;;
66425;SDS011;53237;46.158;14.604;2022-08-21T00:48:12;3.38;;;2.05;;
66425;SDS011;53237;46.158;14.604;2022-08-21T00:50:40;3.30;;;2.10;;
66425;SDS011;53237;46.158;14.604;2022-08-21T00:53:07;2.70;;;1.70;;
66425;SDS011;53237;46.158;14.604;2022-08-21T00:55:33;2.55;;;1.90;;
66425;SDS011;53237;46.158;14.604;2022-08-21T00:58:00;1.70;;;1.50;;
66425;SDS011;53237;46.158;14.604;2022-08-21T01:00:31;3.65;;;2.00;;
66425;SDS011;53237;46.158;14.604;2022-08-21T01:02:58;2.17;;;1.80;;
66425;SDS011;53237;46.158;14.604;2022-08-21T01:05:24;2.13;;;1.90;;
66425;SDS011;53237;46.158;14.604;2022-08-21T01:07:51;2.20;;;2.00;;
66425;SDS011;53237;46.158;14.604;2022-08-21T01:10:18;4.32;;;2.30;;
66425;SDS011;53237;46.158;14.604;2022-08-21T01:12:44;3.20;;;1.85;;
66425;SDS011;53237;46.158;14.604;2022-08-21T01:15:10;3.85;;;1.88;;
66425;SDS011;53237;46.158;14.604;2022-08-21T01:17:36;2.30;;;2.10;;
66425;SDS011;53237;46.158;14.604;2022-08-21T01:20:04;3.42;;;2.25;;
66425;SDS011;53237;46.158;14.604;2022-08-21T01:22:31;3.95;;;2.10;;
66425;SDS011;53237;46.158;14.604;2022-08-21T01:24:57;2.67;;;2.10;;
66425;SDS011;53237;46.158;14.604;2022-08-21T01:27:23;2.75;;;1.80;;
66425;SDS011;53237;46.158;14.604;2022-08-21T01:32:16;2.33;;;1.90;;
66425;SDS011;53237;46.158;14.604;2022-08-21T01:34:43;3.65;;;2.10;;
66425;SDS011;53237;46.158;14.604;2022-08-21T01:37:10;1.98;;;1.77;;
66425;SDS011;53237;46.158;14.604;2022-08-21T01:39:36;2.33;;;1.77;;
66425;SDS011;53237;46.158;14.604;2022-08-21T01:42:03;2.38;;;1.70;;
66425;SDS011;53237;46.158;14.604;2022-08-21T01:44:29;2.55;;;2.03;;
66425;SDS011;53237;46.158;14.604;2022-08-21T01:46:57;3.05;;;2.17;;
66425;SDS011;53237;46.158;14.604;2022-08-21T01:49:23;2.63;;;1.70;;
66425;SDS011;53237;46.158;14.604;2022-08-21T01:51:49;2.78;;;1.83;;
66425;SDS011;53237;46.158;14.604;2022-08-21T01:54:15;2.72;;;1.90;;
66425;SDS011;53237;46.158;14.604;2022-08-21T01:56:43;2.63;;;1.90;;
66425;SDS011;53237;46.158;14.604;2022-08-21T01:59:09;2.40;;;2.20;;
66425;SDS011;53237;46.158;14.604;2022-08-21T02:01:35;5.13;;;2.03;;
66425;SDS011;53237;46.158;14.604;2022-08-21T02:04:02;2.78;;;1.90;;
66425;SDS011;53237;46.158;14.604;2022-08-21T02:06:28;4.10;;;2.03;;
66425;SDS011;53237;46.158;14.604;2022-08-21T02:08:54;2.03;;;1.83;;
66425;SDS011;53237;46.158;14.604;2022-08-21T02:11:20;2.78;;;1.90;;
66425;SDS011;53237;46.158;14.604;2022-08-21T02:13:46;2.05;;;1.80;;
66425;SDS011;53237;46.158;14.604;2022-08-21T02:16:13;2.45;;;1.95;;
66425;SDS011;53237;46.158;14.604;2022-08-21T02:18:39;1.63;;;1.52;;
66425;SDS011;53237;46.158;14.604;2022-08-21T02:21:05;3.38;;;1.90;;
66425;SDS011;53237;46.158;14.604;2022-08-21T02:23:31;3.35;;;2.20;;
66425;SDS011;53237;46.158;14.604;2022-08-21T02:25:58;2.75;;;2.50;;
66425;SDS011;53237;46.158;14.604;2022-08-21T02:28:25;1.80;;;1.67;;
66425;SDS011;53237;46.158;14.604;2022-08-21T02:30:51;3.25;;;2.20;;
66425;SDS011;53237;46.158;14.604;2022-08-21T02:33:17;4.78;;;2.20;;
66425;SDS011;53237;46.158;14.604;2022-08-21T02:35:45;3.33;;;2.03;;
66425;SDS011;53237;46.158;14.604;2022-08-21T02:38:13;4.30;;;1.90;;
66425;SDS011;53237;46.158;14.604;2022-08-21T02:40:40;2.88;;;2.30;;
66425;SDS011;53237;46.158;14.604;2022-08-21T02:43:06;3.20;;;2.00;;
66425;SDS011;53237;46.158;14.604;2022-08-21T02:45:33;2.10;;;1.90;;
66425;SDS011;53237;46.158;14.604;2022-08-21T02:48:00;1.80;;;1.70;;
66425;SDS011;53237;46.158;14.604;2022-08-21T02:50:31;2.60;;;1.80;;
66425;SDS011;53237;46.158;14.604;2022-08-21T02:52:58;4.33;;;2.03;;
66425;SDS011;53237;46.158;14.604;2022-08-21T02:55:25;2.55;;;1.70;;
66425;SDS011;53237;46.158;14.604;2022-08-21T02:57:51;3.67;;;1.65;;
66425;SDS011;53237;46.158;14.604;2022-08-21T03:00:18;2.30;;;1.70;;
66425;SDS011;53237;46.158;14.604;2022-08-21T03:02:45;2.92;;;1.80;;
66425;SDS011;53237;46.158;14.604;2022-08-21T03:05:12;1.80;;;1.70;;
66425;SDS011;53237;46.158;14.604;2022-08-21T03:07:40;2.05;;;1.63;;
66425;SDS011;53237;46.158;14.604;2022-08-21T03:10:07;2.15;;;1.50;;
66425;SDS011;53237;46.158;14.604;2022-08-21T03:12:33;1.95;;;1.73;;
66425;SDS011;53237;46.158;14.604;2022-08-21T03:15:00;2.05;;;1.77;;
66425;SDS011;53237;46.158;14.604;2022-08-21T03:17:26;3.30;;;2.22;;
66425;SDS011;53237;46.158;14.604;2022-08-21T03:19:52;1.80;;;1.40;;
66425;SDS011;53237;46.158;14.604;2022-08-21T03:22:18;2.28;;;1.75;;
66425;SDS011;53237;46.158;14.604;2022-08-21T03:24:44;4.13;;;2.30;;
66425;SDS011;53237;46.158;14.604;2022-08-21T03:27:10;5.57;;;4.05;;
66425;SDS011;53237;46.158;14.604;2022-08-21T03:29:38;5.07;;;4.55;;
66425;SDS011;53237;46.158;14.604;2022-08-21T03:32:04;2.00;;;1.80;;
66425;SDS011;53237;46.158;14.604;2022-08-21T03:34:30;2.08;;;1.85;;
66425;SDS011;53237;46.158;14.604;2022-08-21T03:36:56;2.17;;;1.70;;
66425;SDS011;53237;46.158;14.604;2022-08-21T03:39:22;2.33;;;2.03;;
66425;SDS011;53237;46.158;14.604;2022-08-21T03:41:48;3.70;;;1.70;;
66425;SDS011;53237;46.158;14.604;2022-08-21T03:44:14;2.53;;;2.30;;
66425;SDS011;53237;46.158;14.604;2022-08-21T03:46:40;2.53;;;1.80;;
66425;SDS011;53237;46.158;14.604;2022-08-21T03:49:06;3.67;;;1.70;;
66425;SDS011;53237;46.158;14.604;2022-08-21T03:51:32;2.38;;;1.83;;
66425;SDS011;53237;46.158;14.604;2022-08-21T03:54:00;2.45;;;1.65;;
66425;SDS011;53237;46.158;14.604;2022-08-21T03:56:26;3.38;;;1.90;;
66425;SDS011;53237;46.158;14.604;2022-08-21T03:58:52;3.28;;;1.88;;
66425;SDS011;53237;46.158;14.604;2022-08-21T04:01:18;3.50;;;1.90;;
66425;SDS011;53237;46.158;14.604;2022-08-21T04:03:44;2.72;;;2.00;;
66425;SDS011;53237;46.158;14.604;2022-08-21T04:06:10;3.08;;;2.53;;
66425;SDS011;53237;46.158;14.604;2022-08-21T04:08:36;3.22;;;1.98;;
66425;SDS011;53237;46.158;14.604;2022-08-21T04:11:03;3.05;;;2.30;;
66425;SDS011;53237;46.158;14.604;2022-08-21T04:13:29;2.55;;;2.00;;
66425;SDS011;53237;46.158;14.604;2022-08-21T04:15:55;3.88;;;2.28;;
66425;SDS011;53237;46.158;14.604;2022-08-21T04:18:23;2.42;;;2.13;;
66425;SDS011;53237;46.158;14.604;2022-08-21T04:20:50;3.25;;;2.30;;
66425;SDS011;53237;46.158;14.604;2022-08-21T04:23:18;2.58;;;2.22;;
66425;SDS011;53237;46.158;14.604;2022-08-21T04:25:44;2.40;;;2.20;;
66425;SDS011;53237;46.158;14.604;2022-08-21T04:28:10;2.50;;;2.30;;
66425;SDS011;53237;46.158;14.604;2022-08-21T04:30:36;3.25;;;2.33;;
66425;SDS011;53237;46.158;14.604;2022-08-21T04:33:03;4.50;;;2.50;;
66425;SDS011;53237;46.158;14.604;2022-08-21T04:35:29;4.85;;;2.50;;
66425;SDS011;53237;46.158;14.604;2022-08-21T04:37:55;2.78;;;2.53;;
66425;SDS011;53237;46.158;14.604;2022-08-21T04:40:23;4.45;;;2.45;;
66425;SDS011;53237;46.158;14.604;2022-08-21T04:42:54;3.47;;;2.40;;
66425;SDS011;53237;46.158;14.604;2022-08-21T04:45:22;2.80;;;2.53;;
66425;SDS011;53237;46.158;14.604;2022-08-21T04:47:49;3.22;;;2.15;;
66425;SDS011;53237;46.158;14.604;2022-08-21T04:50:15;4.80;;;2.50;;
66425;SDS011;53237;46.158;14.604;2022-08-21T04:52:41;2.85;;;2.25;;
66425;SDS011;53237;46.158;14.604;2022-08-21T04:55:08;4.60;;;2.90;;
66425;SDS011;53237;46.158;14.604;2022-08-21T04:57:35;8.55;;;3.05;;
66425;SDS011;53237;46.158;14.604;2022-08-21T05:00:02;2.40;;;1.92;;
66425;SDS011;53237;46.158;14.604;2022-08-21T05:02:30;4.57;;;2.30;;
66425;SDS011;53237;46.158;14.604;2022-08-21T05:04:58;3.13;;;2.38;;
66425;SDS011;53237;46.158;14.604;2022-08-21T05:07:26;2.38;;;2.17;;
66425;SDS011;53237;46.158;14.604;2022-08-21T05:09:54;2.20;;;1.92;;
66425;SDS011;53237;46.158;14.604;2022-08-21T05:12:20;2.90;;;1.98;;
66425;SDS011;53237;46.158;14.604;2022-08-21T05:14:47;1.63;;;1.52;;
66425;SDS011;53237;46.158;14.604;2022-08-21T05:17:13;2.15;;;1.95;;
66425;SDS011;53237;46.158;14.604;2022-08-21T05:19:39;3.53;;;2.30;;
66425;SDS011;53237;46.158;14.604;2022-08-21T05:22:05;2.40;;;2.17;;
66425;SDS011;53237;46.158;14.604;2022-08-21T05:24:31;2.83;;;2.25;;
66425;SDS011;53237;46.158;14.604;2022-08-21T05:26:57;2.97;;;2.00;;
66425;SDS011;53237;46.158;14.604;2022-08-21T05:29:24;3.05;;;2.75;;
66425;SDS011;53237;46.158;14.604;2022-08-21T05:31:50;1.92;;;1.50;;
66425;SDS011;53237;46.158;14.604;2022-08-21T05:34:20;2.60;;;1.88;;
66425;SDS011;53237;46.158;14.604;2022-08-21T05:36:46;5.68;;;2.95;;
66425;SDS011;53237;46.158;14.604;2022-08-21T05:39:13;4.32;;;3.25;;
66425;SDS011;53237;46.158;14.604;2022-08-21T05:41:39;2.08;;;1.88;;
66425;SDS011;53237;46.158;14.604;2022-08-21T05:44:05;2.47;;;1.88;;
66425;SDS011;53237;46.158;14.604;2022-08-21T05:46:31;2.35;;;1.98;;
66425;SDS011;53237;46.158;14.604;2022-08-21T05:48:57;2.38;;;1.73;;
66425;SDS011;53237;46.158;14.604;2022-08-21T05:51:23;2.10;;;1.90;;
66425;SDS011;53237;46.158;14.604;2022-08-21T05:53:49;3.33;;;1.90;;
66425;SDS011;53237;46.158;14.604;2022-08-21T05:56:15;2.83;;;1.90;;
66425;SDS011;53237;46.158;14.604;2022-08-21T05:58:41;4.40;;;3.25;;
66425;SDS011;53237;46.158;14.604;2022-08-21T06:01:08;2.55;;;1.80;;
66425;SDS011;53237;46.158;14.604;2022-08-21T06:03:35;2.22;;;2.00;;
66425;SDS011;53237;46.158;14.604;2022-08-21T06:06:01;2.10;;;1.90;;
66425;SDS011;53237;46.158;14.604;2022-08-21T06:08:28;2.05;;;1.92;;
66425;SDS011;53237;46.158;14.604;2022-08-21T06:10:55;2.38;;;2.15;;
66425;SDS011;53237;46.158;14.604;2022-08-21T06:13:22;1.88;;;1.77;;
66425;SDS011;53237;46.158;14.604;2022-08-21T06:15:48;2.42;;;2.10;;
66425;SDS011;53237;46.158;14.604;2022-08-21T06:18:15;3.45;;;1.90;;
66425;SDS011;53237;46.158;14.604;2022-08-21T06:20:41;2.20;;;2.00;;
66425;SDS011;53237;46.158;14.604;2022-08-21T06:23:07;3.70;;;2.30;;
66425;SDS011;53237;46.158;14.604;2022-08-21T06:25:33;3.03;;;1.90;;
66425;SDS011;53237;46.158;14.604;2022-08-21T06:30:28;2.30;;;2.10;;
66425;SDS011;53237;46.158;14.604;2022-08-21T06:32:54;2.53;;;1.90;;
66425;SDS011;53237;46.158;14.604;2022-08-21T06:35:20;2.17;;;1.88;;
66425;SDS011;53237;46.158;14.604;2022-08-21T06:37:46;4.15;;;2.22;;
66425;SDS011;53237;46.158;14.604;2022-08-21T06:40:12;2.17;;;1.90;;
66425;SDS011;53237;46.158;14.604;2022-08-21T06:42:38;4.40;;;3.03;;
66425;SDS011;53237;46.158;14.604;2022-08-21T06:45:04;2.20;;;2.00;;
66425;SDS011;53237;46.158;14.604;2022-08-21T06:47:31;2.03;;;1.88;;
66425;SDS011;53237;46.158;14.604;2022-08-21T06:49:57;2.10;;;1.90;;
66425;SDS011;53237;46.158;14.604;2022-08-21T06:52:23;3.25;;;2.33;;
66425;SDS011;53237;46.158;14.604;2022-08-21T06:54:49;2.65;;;2.45;;
66425;SDS011;53237;46.158;14.604;2022-08-21T06:57:15;2.60;;;2.40;;
66425;SDS011;53237;46.158;14.604;2022-08-21T06:59:41;2.80;;;2.55;;
66425;SDS011;53237;46.158;14.604;2022-08-21T07:02:07;3.60;;;2.60;;
66425;SDS011;53237;46.158;14.604;2022-08-21T07:04:33;3.10;;;2.60;;
66425;SDS011;53237;46.158;14.604;2022-08-21T07:06:59;4.88;;;4.30;;
66425;SDS011;53237;46.158;14.604;2022-08-21T07:09:25;9.13;;;3.00;;
66425;SDS011;53237;46.158;14.604;2022-08-21T07:11:52;6.35;;;3.10;;
66425;SDS011;53237;46.158;14.604;2022-08-21T07:14:19;4.07;;;3.50;;
66425;SDS011;53237;46.158;14.604;2022-08-21T07:16:45;9.55;;;7.90;;
66425;SDS011;53237;46.158;14.604;2022-08-21T07:19:11;4.60;;;3.60;;
66425;SDS011;53237;46.158;14.604;2022-08-21T07:21:37;4.65;;;3.80;;
66425;SDS011;53237;46.158;14.604;2022-08-21T07:24:03;6.32;;;4.05;;
66425;SDS011;53237;46.158;14.604;2022-08-21T07:26:29;4.50;;;4.10;;
66425;SDS011;53237;46.158;14.604;2022-08-21T07:28:55;5.70;;;4.78;;
66425;SDS011;53237;46.158;14.604;2022-08-21T07:31:24;4.32;;;3.20;;
66425;SDS011;53237;46.158;14.604;2022-08-21T07:33:50;3.95;;;3.55;;
66425;SDS011;53237;46.158;14.604;2022-08-21T07:36:16;5.10;;;3.80;;
66425;SDS011;53237;46.158;14.604;2022-08-21T07:38:42;5.03;;;3.38;;
66425;SDS011;53237;46.158;14.604;2022-08-21T07:41:16;5.07;;;3.95;;
66425;SDS011;53237;46.158;14.604;2022-08-21T07:43:43;4.05;;;3.45;;
66425;SDS011;53237;46.158;14.604;2022-08-21T07:46:09;2.50;;;2.30;;
66425;SDS011;53237;46.158;14.604;2022-08-21T07:48:35;4.45;;;2.80;;
66425;SDS011;53237;46.158;14.604;2022-08-21T07:51:02;3.83;;;3.00;;
66425;SDS011;53237;46.158;14.604;2022-08-21T07:53:30;3.20;;;2.90;;
66425;SDS011;53237;46.158;14.604;2022-08-21T07:55:57;5.03;;;4.07;;
66425;SDS011;53237;46.158;14.604;2022-08-21T07:58:23;3.45;;;3.00;;
66425;SDS011;53237;46.158;14.604;2022-08-21T08:00:49;4.57;;;2.45;;
66425;SDS011;53237;46.158;14.604;2022-08-21T08:03:15;3.17;;;2.75;;
66425;SDS011;53237;46.158;14.604;2022-08-21T08:05:41;6.28;;;3.45;;
66425;SDS011;53237;46.158;14.604;2022-08-21T08:08:08;2.75;;;2.55;;
66425;SDS011;53237;46.158;14.604;2022-08-21T08:10:34;2.30;;;2.20;;
66425;SDS011;53237;46.158;14.604;2022-08-21T08:13:01;2.60;;;2.40;;
66425;SDS011;53237;46.158;14.604;2022-08-21T08:15:27;2.80;;;2.25;;
66425;SDS011;53237;46.158;14.604;2022-08-21T08:17:53;4.55;;;2.28;;
66425;SDS011;53237;46.158;14.604;2022-08-21T08:20:19;2.50;;;2.30;;
66425;SDS011;53237;46.158;14.604;2022-08-21T08:22:47;2.72;;;2.45;;
66425;SDS011;53237;46.158;14.604;2022-08-21T08:25:13;3.35;;;1.60;;
66425;SDS011;53237;46.158;14.604;2022-08-21T08:27:40;1.85;;;1.67;;
66425;SDS011;53237;46.158;14.604;2022-08-21T08:30:07;2.25;;;2.05;;
66425;SDS011;53237;46.158;14.604;2022-08-21T08:32:35;1.98;;;1.80;;
66425;SDS011;53237;46.158;14.604;2022-08-21T08:35:01;4.22;;;1.80;;
66425;SDS011;53237;46.158;14.604;2022-08-21T08:37:27;3.40;;;2.08;;
66425;SDS011;53237;46.158;14.604;2022-08-21T08:39:53;4.70;;;1.90;;
66425;SDS011;53237;46.158;14.604;2022-08-21T08:42:28;2.63;;;1.92;;
66425;SDS011;53237;46.158;14.604;2022-08-21T08:45:06;3.08;;;1.90;;
66425;SDS011;53237;46.158;14.604;2022-08-21T08:47:33;4.28;;;2.03;;
66425;SDS011;53237;46.158;14.604;2022-08-21T08:52:30;2.55;;;2.25;;
66425;SDS011;53237;46.158;14.604;2022-08-21T08:57:26;3.28;;;2.20;;
66425;SDS011;53237;46.158;14.604;2022-08-21T08:59:53;2.35;;;1.75;;
66425;SDS011;53237;46.158;14.604;2022-08-21T09:02:21;1.60;;;1.50;;
66425;SDS011;53237;46.158;14.604;2022-08-21T09:04:52;2.53;;;1.70;;
66425;SDS011;53237;46.158;14.604;2022-08-21T09:15:21;2.20;;;1.50;;
66425;SDS011;53237;46.158;14.604;2022-08-21T09:20:19;2.25;;;1.88;;
66425;SDS011;53237;46.158;14.604;2022-08-21T09:27:43;2.00;;;1.85;;
66425;SDS011;53237;46.158;14.604;2022-08-21T09:30:09;3.35;;;1.70;;
66425;SDS011;53237;46.158;14.604;2022-08-21T09:32:36;2.97;;;1.85;;
66425;SDS011;53237;46.158;14.604;2022-08-21T09:37:46;2.25;;;1.75;;
66425;SDS011;53237;46.158;14.604;2022-08-21T09:40:19;2.63;;;1.50;;
66425;SDS011;53237;46.158;14.604;2022-08-21T09:42:53;2.33;;;2.00;;
66425;SDS011;53237;46.158;14.604;2022-08-21T09:45:19;2.45;;;1.50;;
66425;SDS011;53237;46.158;14.604;2022-08-21T09:47:45;2.75;;;1.50;;
66425;SDS011;53237;46.158;14.604;2022-08-21T09:52:42;3.33;;;1.75;;
66425;SDS011;53237;46.158;14.604;2022-08-21T09:55:09;2.47;;;1.77;;
66425;SDS011;53237;46.158;14.604;2022-08-21T09:58:00;1.40;;;1.30;;
66425;SDS011;53237;46.158;14.604;2022-08-21T10:02:54;1.80;;;1.70;;
66425;SDS011;53237;46.158;14.604;2022-08-21T10:05:25;3.85;;;2.50;;
66425;SDS011;53237;46.158;14.604;2022-08-21T10:10:24;3.50;;;2.38;;
66425;SDS011;53237;46.158;14.604;2022-08-21T10:13:03;1.75;;;1.50;;
66425;SDS011;53237;46.158;14.604;2022-08-21T10:20:46;3.75;;;2.50;;
66425;SDS011;53237;46.158;14.604;2022-08-21T10:23:35;5.75;;;3.22;;
66425;SDS011;53237;46.158;14.604;2022-08-21T10:38:46;9.02;;;2.30;;
66425;SDS011;53237;46.158;14.604;2022-08-21T10:41:20;4.35;;;2.38;;
66425;SDS011;53237;46.158;14.604;2022-08-21T10:43:52;3.15;;;2.28;;
66425;SDS011;53237;46.158;14.604;2022-08-21T10:48:53;3.08;;;2.17;;
66425;SDS011;53237;46.158;14.604;2022-08-21T10:51:44;2.35;;;2.15;;
66425;SDS011;53237;46.158;14.604;2022-08-21T10:56:56;4.50;;;2.20;;
66425;SDS011;53237;46.158;14.604;2022-08-21T10:59:31;4.45;;;2.10;;
66425;SDS011;53237;46.158;14.604;2022-08-21T11:04:30;2.00;;;1.80;;
66425;SDS011;53237;46.158;14.604;2022-08-21T11:07:02;3.70;;;2.20;;
66425;SDS011;53237;46.158;14.604;2022-08-21T11:09:29;3.58;;;2.10;;
66425;SDS011;53237;46.158;14.604;2022-08-21T11:11:57;2.70;;;1.60;;
66425;SDS011;53237;46.158;14.604;2022-08-21T11:14:33;2.90;;;1.67;;
66425;SDS011;53237;46.158;14.604;2022-08-21T11:17:05;2.00;;;1.50;;
66425;SDS011;53237;46.158;14.604;2022-08-21T11:24:37;4.60;;;2.15;;
66425;SDS011;53237;46.158;14.604;2022-08-21T11:29:44;1.88;;;1.20;;
66425;SDS011;53237;46.158;14.604;2022-08-21T11:32:24;1.52;;;1.20;;
66425;SDS011;53237;46.158;14.604;2022-08-21T11:37:31;2.97;;;1.50;;
66425;SDS011;53237;46.158;14.604;2022-08-21T11:42:48;1.70;;;1.00;;
66425;SDS011;53237;46.158;14.604;2022-08-21T11:47:56;1.70;;;1.10;;
66425;SDS011;53237;46.158;14.604;2022-08-21T11:50:26;1.05;;;0.90;;
66425;SDS011;53237;46.158;14.604;2022-08-21T11:53:07;1.17;;;1.08;;
66425;SDS011;53237;46.158;14.604;2022-08-21T12:00:46;1.73;;;0.82;;
66425;SDS011;53237;46.158;14.604;2022-08-21T12:03:16;0.90;;;0.90;;
66425;SDS011;53237;46.158;14.604;2022-08-21T12:05:44;1.77;;;1.33;;
66425;SDS011;53237;46.158;14.604;2022-08-21T12:08:13;1.15;;;1.05;;
66425;SDS011;53237;46.158;14.604;2022-08-21T12:10:41;1.00;;;1.00;;
66425;SDS011;53237;46.158;14.604;2022-08-21T12:13:11;1.85;;;1.27;;
66425;SDS011;53237;46.158;14.604;2022-08-21T12:15:47;5.68;;;1.10;;
66425;SDS011;53237;46.158;14.604;2022-08-21T12:18:23;1.55;;;1.10;;
66425;SDS011;53237;46.158;14.604;2022-08-21T12:21:04;1.23;;;1.10;;
66425;SDS011;53237;46.158;14.604;2022-08-21T12:23:43;2.15;;;1.30;;
66425;SDS011;53237;46.158;14.604;2022-08-21T12:28:38;0.90;;;0.90;;
66425;SDS011;53237;46.158;14.604;2022-08-21T12:31:04;0.82;;;0.82;;
66425;SDS011;53237;46.158;14.604;2022-08-21T12:33:32;0.90;;;0.90;;
66425;SDS011;53237;46.158;14.604;2022-08-21T12:36:03;1.23;;;1.13;;
66425;SDS011;53237;46.158;14.604;2022-08-21T12:38:39;1.35;;;1.25;;
66425;SDS011;53237;46.158;14.604;2022-08-21T12:41:15;2.10;;;1.70;;
66425;SDS011;53237;46.158;14.604;2022-08-21T12:43:43;1.67;;;1.05;;
66425;SDS011;53237;46.158;14.604;2022-08-21T12:46:19;1.00;;;1.00;;
66425;SDS011;53237;46.158;14.604;2022-08-21T12:48:54;1.55;;;1.00;;
66425;SDS011;53237;46.158;14.604;2022-08-21T12:51:22;1.63;;;1.00;;
66425;SDS011;53237;46.158;14.604;2022-08-21T12:53:51;1.10;;;1.00;;
66425;SDS011;53237;46.158;14.604;2022-08-21T12:56:18;2.15;;;1.10;;
66425;SDS011;53237;46.158;14.604;2022-08-21T12:58:53;1.77;;;0.93;;
66425;SDS011;53237;46.158;14.604;2022-08-21T13:03:45;7.38;;;1.08;;
66425;SDS011;53237;46.158;14.604;2022-08-21T13:06:13;1.75;;;1.00;;
66425;SDS011;53237;46.158;14.604;2022-08-21T13:08:41;1.00;;;0.90;;
66425;SDS011;53237;46.158;14.604;2022-08-21T13:11:08;10.05;;;1.40;;
66425;SDS011;53237;46.158;14.604;2022-08-21T13:13:35;2.53;;;1.23;;
66425;SDS011;53237;46.158;14.604;2022-08-21T13:16:02;1.30;;;1.20;;
66425;SDS011;53237;46.158;14.604;2022-08-21T13:18:31;20.58;;;2.90;;
66425;SDS011;53237;46.158;14.604;2022-08-21T13:21:05;1.08;;;0.88;;
66425;SDS011;53237;46.158;14.604;2022-08-21T13:23:31;0.70;;;0.70;;
66425;SDS011;53237;46.158;14.604;2022-08-21T13:25:57;0.85;;;0.85;;
66425;SDS011;53237;46.158;14.604;2022-08-21T13:28:23;0.82;;;0.70;;
66425;SDS011;53237;46.158;14.604;2022-08-21T13:30:58;4.00;;;1.13;;
66425;SDS011;53237;46.158;14.604;2022-08-21T13:33:26;1.40;;;0.85;;
66425;SDS011;53237;46.158;14.604;2022-08-21T13:38:22;4.57;;;1.40;;
66425;SDS011;53237;46.158;14.604;2022-08-21T13:40:57;11.65;;;2.33;;
66425;SDS011;53237;46.158;14.604;2022-08-21T13:43:33;1.20;;;1.10;;
66425;SDS011;53237;46.158;14.604;2022-08-21T13:46:00;3.35;;;1.40;;
66425;SDS011;53237;46.158;14.604;2022-08-21T13:48:28;0.90;;;0.90;;
66425;SDS011;53237;46.158;14.604;2022-08-21T13:50:55;2.15;;;1.02;;
66425;SDS011;53237;46.158;14.604;2022-08-21T13:53:29;2.67;;;1.00;;
66425;SDS011;53237;46.158;14.604;2022-08-21T13:55:56;1.30;;;0.90;;
66425;SDS011;53237;46.158;14.604;2022-08-21T13:58:45;3.92;;;1.10;;
66425;SDS011;53237;46.158;14.604;2022-08-21T14:01:30;1.83;;;0.98;;
66425;SDS011;53237;46.158;14.604;2022-08-21T14:03:58;3.50;;;1.00;;
66425;SDS011;53237;46.158;14.604;2022-08-21T14:06:27;0.95;;;0.95;;
66425;SDS011;53237;46.158;14.604;2022-08-21T14:08:58;1.17;;;1.08;;
66425;SDS011;53237;46.158;14.604;2022-08-21T14:11:24;3.55;;;0.70;;
66425;SDS011;53237;46.158;14.604;2022-08-21T14:13:56;0.90;;;0.82;;
66425;SDS011;53237;46.158;14.604;2022-08-21T14:18:54;0.75;;;0.70;;
66425;SDS011;53237;46.158;14.604;2022-08-21T14:23:59;1.25;;;0.80;;
66425;SDS011;53237;46.158;14.604;2022-08-21T14:26:26;1.10;;;0.50;;
66425;SDS011;53237;46.158;14.604;2022-08-21T14:28:52;2.10;;;1.13;;
66425;SDS011;53237;46.158;14.604;2022-08-21T14:31:18;1.98;;;0.90;;
66425;SDS011;53237;46.158;14.604;2022-08-21T14:33:45;0.70;;;0.70;;
66425;SDS011;53237;46.158;14.604;2022-08-21T14:36:11;0.90;;;0.70;;
66425;SDS011;53237;46.158;14.604;2022-08-21T14:38:38;0.73;;;0.73;;
66425;SDS011;53237;46.158;14.604;2022-08-21T14:41:08;1.23;;;0.80;;
66425;SDS011;53237;46.158;14.604;2022-08-21T14:43:36;0.80;;;0.80;;
66425;SDS011;53237;46.158;14.604;2022-08-21T14:46:02;1.00;;;0.90;;
66425;SDS011;53237;46.158;14.604;2022-08-21T14:48:28;0.95;;;0.70;;
66425;SDS011;53237;46.158;14.604;2022-08-21T14:50:54;0.93;;;0.70;;
66425;SDS011;53237;46.158;14.604;2022-08-21T14:53:20;2.85;;;1.00;;
66425;SDS011;53237;46.158;14.604;2022-08-21T14:55:46;1.70;;;1.00;;
66425;SDS011;53237;46.158;14.604;2022-08-21T14:58:31;1.45;;;0.70;;
66425;SDS011;53237;46.158;14.604;2022-08-21T15:00:57;1.98;;;0.70;;
66425;SDS011;53237;46.158;14.604;2022-08-21T15:03:24;1.42;;;1.00;;
66425;SDS011;53237;46.158;14.604;2022-08-21T15:05:51;1.98;;;0.70;;
66425;SDS011;53237;46.158;14.604;2022-08-21T15:08:17;1.17;;;0.70;;
66425;SDS011;53237;46.158;14.604;2022-08-21T15:10:44;2.28;;;0.90;;
66425;SDS011;53237;46.158;14.604;2022-08-21T15:13:10;0.73;;;0.73;;
66425;SDS011;53237;46.158;14.604;2022-08-21T15:15:40;1.63;;;0.70;;
66425;SDS011;53237;46.158;14.604;2022-08-21T15:18:06;2.10;;;0.90;;
66425;SDS011;53237;46.158;14.604;2022-08-21T15:20:32;2.92;;;0.98;;
66425;SDS011;53237;46.158;14.604;2022-08-21T15:22:58;1.13;;;1.02;;
66425;SDS011;53237;46.158;14.604;2022-08-21T15:25:24;0.70;;;0.70;;
66425;SDS011;53237;46.158;14.604;2022-08-21T15:27:50;1.30;;;1.20;;
66425;SDS011;53237;46.158;14.604;2022-08-21T15:30:17;2.15;;;1.00;;
66425;SDS011;53237;46.158;14.604;2022-08-21T15:32:43;1.63;;;0.82;;
66425;SDS011;53237;46.158;14.604;2022-08-21T15:35:09;1.10;;;1.00;;
66425;SDS011;53237;46.158;14.604;2022-08-21T15:37:35;1.77;;;0.80;;
66425;SDS011;53237;46.158;14.604;2022-08-21T15:40:02;1.02;;;0.90;;
66425;SDS011;53237;46.158;14.604;2022-08-21T15:42:28;2.88;;;0.90;;
66425;SDS011;53237;46.158;14.604;2022-08-21T15:44:54;1.42;;;0.88;;
66425;SDS011;53237;46.158;14.604;2022-08-21T15:47:22;2.47;;;1.02;;
66425;SDS011;53237;46.158;14.604;2022-08-21T15:49:50;2.17;;;0.90;;
66425;SDS011;53237;46.158;14.604;2022-08-21T15:52:17;0.75;;;0.70;;
66425;SDS011;53237;46.158;14.604;2022-08-21T15:54:43;1.13;;;0.90;;
66425;SDS011;53237;46.158;14.604;2022-08-21T15:57:11;1.23;;;0.75;;
66425;SDS011;53237;46.158;14.604;2022-08-21T15:59:39;1.00;;;0.98;;
66425;SDS011;53237;46.158;14.604;2022-08-21T16:02:07;1.45;;;0.80;;
66425;SDS011;53237;46.158;14.604;2022-08-21T16:04:35;1.13;;;1.13;;
66425;SDS011;53237;46.158;14.604;2022-08-21T16:07:01;3.00;;;1.05;;
66425;SDS011;53237;46.158;14.604;2022-08-21T16:09:27;3.88;;;1.70;;
66425;SDS011;53237;46.158;14.604;2022-08-21T16:11:53;4.03;;;1.50;;